createdAt,value
2023-12-07T00:00:29.207Z,89.37
2023-12-07T00:03:32.108Z,89.27
2023-12-07T00:06:20.745Z,89.36
2023-12-07T00:09:09.365Z,89.51
2023-12-07T00:11:58.025Z,89.55
2023-12-07T00:14:46.575Z,89.72
2023-12-07T00:17:35.411Z,89.84
2023-12-07T00:20:23.935Z,90.00
2023-12-07T00:23:12.973Z,89.94
2023-12-07T00:26:01.646Z,90.10
2023-12-07T00:28:50.196Z,90.13
2023-12-07T00:31:38.762Z,90.14
2023-12-07T00:34:27.565Z,90.22
2023-12-07T00:37:16.286Z,90.15
2023-12-07T00:40:05.476Z,90.18
2023-12-07T00:42:54.442Z,90.29
2023-12-07T00:45:42.992Z,90.32
2023-12-07T00:48:31.550Z,90.30
2023-12-07T00:51:20.349Z,90.36
2023-12-07T00:54:08.902Z,90.47
2023-12-07T00:56:57.423Z,90.61
2023-12-07T00:59:46.608Z,90.46
2023-12-07T01:02:35.325Z,90.42
2023-12-07T01:05:23.930Z,90.39
2023-12-07T01:08:12.645Z,90.39
2023-12-07T01:11:01.271Z,90.44
2023-12-07T01:13:50.256Z,90.58
2023-12-07T01:16:39.089Z,90.75
2023-12-07T01:19:28.606Z,90.69
2023-12-07T01:22:17.711Z,90.66
2023-12-07T01:25:07.217Z,90.45
2023-12-07T01:27:56.457Z,90.60
2023-12-07T01:30:45.016Z,90.55
2023-12-07T01:33:33.689Z,90.56
2023-12-07T01:36:22.440Z,90.53
2023-12-07T01:39:13.895Z,90.78
2023-12-07T01:42:02.482Z,90.73
2023-12-07T01:44:51.021Z,90.76
2023-12-07T01:47:39.753Z,90.73
2023-12-07T01:50:29.741Z,90.57
2023-12-07T01:53:18.356Z,90.48
2023-12-07T01:56:08.700Z,90.48
2023-12-07T01:58:58.717Z,90.58
2023-12-07T02:02:51.619Z,90.57
2023-12-07T02:05:44.286Z,90.64
2023-12-07T02:08:33.446Z,90.81
2023-12-07T02:11:22.039Z,90.80
2023-12-07T02:14:10.799Z,90.82
2023-12-07T02:17:11.058Z,90.73
2023-12-07T02:20:27.062Z,90.79
2023-12-07T02:23:28.632Z,90.62
2023-12-07T02:26:43.892Z,90.78
2023-12-07T02:29:32.471Z,90.71
2023-12-07T02:32:21.390Z,90.63
2023-12-07T02:35:13.679Z,90.79
2023-12-07T02:38:04.162Z,90.95
2023-12-07T02:40:54.788Z,90.93
2023-12-07T02:43:43.599Z,90.72
2023-12-07T02:46:32.840Z,90.72
2023-12-07T02:49:21.510Z,90.64
2023-12-07T02:52:10.152Z,90.54
2023-12-07T02:54:58.744Z,90.64
2023-12-07T02:57:47.367Z,90.62
2023-12-07T03:00:35.979Z,90.59
2023-12-07T03:03:24.605Z,90.61
2023-12-07T03:06:13.154Z,90.72
2023-12-07T03:09:01.717Z,90.76
2023-12-07T03:11:50.210Z,90.80
2023-12-07T03:14:38.904Z,90.65
2023-12-07T03:17:27.528Z,90.83
2023-12-07T03:20:16.203Z,90.84
2023-12-07T03:23:05.623Z,90.76
2023-12-07T03:25:54.410Z,90.74
2023-12-07T03:28:43.131Z,90.79
2023-12-07T03:31:31.762Z,90.73
2023-12-07T03:34:20.347Z,90.89
2023-12-07T03:37:09.026Z,90.90
2023-12-07T03:39:57.601Z,91.03
2023-12-07T03:42:51.742Z,90.99
2023-12-07T03:45:45.310Z,90.98
2023-12-07T03:48:34.883Z,90.85
2023-12-07T03:51:23.470Z,90.90
2023-12-07T03:54:12.156Z,91.13
2023-12-07T03:57:00.711Z,91.16
2023-12-07T03:59:49.282Z,91.11
2023-12-07T04:02:37.985Z,91.03
2023-12-07T04:05:26.668Z,91.15
2023-12-07T04:08:15.253Z,91.06
2023-12-07T04:11:03.937Z,91.10
2023-12-07T04:13:52.522Z,91.21
2023-12-07T04:16:41.410Z,91.28
2023-12-07T04:19:30.001Z,91.31
2023-12-07T04:22:18.675Z,91.44
2023-12-07T04:25:08.316Z,91.45
2023-12-07T04:27:56.973Z,91.54
2023-12-07T04:30:45.736Z,91.36
2023-12-07T04:33:34.310Z,91.37
2023-12-07T04:36:23.177Z,91.48
2023-12-07T04:39:11.721Z,91.46
2023-12-07T04:42:00.233Z,91.63
2023-12-07T04:44:49.060Z,91.72
2023-12-07T04:47:37.811Z,91.66
2023-12-07T04:50:26.848Z,91.58
2023-12-07T04:53:15.364Z,91.69
2023-12-07T04:56:04.134Z,91.68
2023-12-07T04:58:53.122Z,91.75
2023-12-07T05:01:41.754Z,91.95
2023-12-07T05:04:30.432Z,91.83
2023-12-07T05:07:19.040Z,91.90
2023-12-07T05:10:07.943Z,91.73
2023-12-07T05:12:58.328Z,91.88
2023-12-07T05:15:47.954Z,91.88
2023-12-07T05:18:37.526Z,91.91
2023-12-07T05:21:26.175Z,91.99
2023-12-07T05:24:15.094Z,91.94
2023-12-07T05:27:05.000Z,91.83
2023-12-07T05:29:53.569Z,91.83
2023-12-07T05:32:42.165Z,91.88
2023-12-07T05:35:30.797Z,91.93
2023-12-07T05:38:19.295Z,92.01
2023-12-07T05:41:07.846Z,92.11
2023-12-07T05:43:56.444Z,92.30
2023-12-07T05:46:45.798Z,92.31
2023-12-07T05:49:34.749Z,92.32
2023-12-07T05:52:23.626Z,92.21
2023-12-07T05:55:12.538Z,92.16
2023-12-07T05:58:01.293Z,92.17
2023-12-07T06:00:50.793Z,92.18
2023-12-07T06:03:39.501Z,92.20
2023-12-07T06:06:28.147Z,92.34
2023-12-07T06:09:16.981Z,92.37
2023-12-07T06:12:05.654Z,92.45
2023-12-07T06:14:54.258Z,92.39
2023-12-07T06:17:42.937Z,92.28
2023-12-07T06:20:31.561Z,92.24
2023-12-07T06:23:20.243Z,92.22
2023-12-07T06:26:08.852Z,92.23
2023-12-07T06:28:57.548Z,92.11
2023-12-07T06:31:46.338Z,92.13
2023-12-07T06:34:35.140Z,92.49
2023-12-07T06:37:23.804Z,92.46
2023-12-07T06:40:12.903Z,92.23
2023-12-07T06:43:02.036Z,92.15
2023-12-07T06:45:50.607Z,92.07
2023-12-07T06:48:39.242Z,92.16
2023-12-07T06:51:27.933Z,92.28
2023-12-07T06:54:17.006Z,92.49
2023-12-07T06:57:07.830Z,92.48
2023-12-07T06:59:56.614Z,92.53
2023-12-07T07:02:45.129Z,92.72
2023-12-07T07:05:33.798Z,92.60
2023-12-07T07:08:22.325Z,92.42
2023-12-07T07:11:14.295Z,92.51
2023-12-07T07:14:02.919Z,92.70
2023-12-07T07:16:51.929Z,92.72
2023-12-07T07:19:40.606Z,92.56
2023-12-07T07:22:29.350Z,92.69
2023-12-07T07:25:20.334Z,92.57
2023-12-07T07:28:09.120Z,92.67
2023-12-07T07:30:57.730Z,92.30
2023-12-07T07:34:00.149Z,92.15
2023-12-07T07:36:51.369Z,92.24
2023-12-07T07:39:40.033Z,92.33
2023-12-07T07:42:28.660Z,92.56
2023-12-07T07:45:17.612Z,92.40
2023-12-07T07:48:06.416Z,92.68
2023-12-07T07:50:55.203Z,92.63
2023-12-07T07:53:44.643Z,92.34
2023-12-07T07:56:33.670Z,92.30
2023-12-07T07:59:22.240Z,92.41
2023-12-07T08:02:11.026Z,92.62
2023-12-07T08:04:59.705Z,92.63
2023-12-07T08:07:48.335Z,92.86
2023-12-07T08:10:50.181Z,93.21
2023-12-07T08:13:44.577Z,93.33
2023-12-07T08:16:33.170Z,92.97
2023-12-07T08:19:21.775Z,92.89
2023-12-07T08:22:10.544Z,92.83
2023-12-07T08:25:05.134Z,93.04
2023-12-07T08:27:59.574Z,92.74
2023-12-07T08:30:48.268Z,92.71
2023-12-07T08:33:37.205Z,92.54
2023-12-07T08:36:25.912Z,92.58
2023-12-07T08:39:14.590Z,92.91
2023-12-07T08:42:03.220Z,93.34
2023-12-07T08:44:51.928Z,93.40
2023-12-07T08:47:41.081Z,93.29
2023-12-07T08:50:31.015Z,93.39
2023-12-07T08:53:21.777Z,93.19
2023-12-07T08:56:10.753Z,93.10
2023-12-07T08:58:59.468Z,92.71
2023-12-07T09:01:48.416Z,92.52
2023-12-07T09:04:37.449Z,92.59
2023-12-07T09:07:26.561Z,92.26
2023-12-07T09:10:15.545Z,92.15
2023-12-07T09:13:04.202Z,92.51
2023-12-07T09:15:52.733Z,92.96
2023-12-07T09:18:43.434Z,92.25
2023-12-07T09:21:32.008Z,91.91
2023-12-07T09:24:21.030Z,91.99
2023-12-07T09:27:11.848Z,92.24
2023-12-07T09:30:02.382Z,92.35
2023-12-07T09:32:51.011Z,92.10
2023-12-07T09:35:40.650Z,92.28
2023-12-07T09:38:29.252Z,92.52
2023-12-07T09:41:17.978Z,92.38
2023-12-07T09:44:07.471Z,92.09
2023-12-07T09:46:56.207Z,91.72
2023-12-07T09:49:44.870Z,91.49
2023-12-07T09:52:33.725Z,91.82
2023-12-07T09:55:23.606Z,91.79
2023-12-07T09:58:13.723Z,91.75
2023-12-07T10:01:02.839Z,91.50
2023-12-07T10:03:52.524Z,91.43
2023-12-07T10:06:48.707Z,91.29
2023-12-07T10:09:41.998Z,91.62
2023-12-07T10:12:31.713Z,91.08
2023-12-07T10:15:21.955Z,91.25
2023-12-07T10:18:10.646Z,91.10
2023-12-07T10:20:59.407Z,91.38
2023-12-07T10:23:49.538Z,91.37
2023-12-07T10:26:40.854Z,91.54
2023-12-07T10:29:33.178Z,91.07
2023-12-07T10:32:25.596Z,90.94
2023-12-07T10:35:16.509Z,91.02
2023-12-07T10:38:05.158Z,91.10
2023-12-07T10:41:08.452Z,91.01
2023-12-07T10:44:07.588Z,90.36
2023-12-07T10:46:59.589Z,90.29
2023-12-07T10:49:55.843Z,90.40
2023-12-07T10:52:58.403Z,90.18
2023-12-07T10:55:53.464Z,90.00
2023-12-07T10:58:44.562Z,90.31
2023-12-07T11:01:34.440Z,90.39
2023-12-07T11:04:24.019Z,90.53
2023-12-07T11:07:18.724Z,90.30
2023-12-07T11:10:22.105Z,90.06
2023-12-07T11:13:30.754Z,90.09
2023-12-07T11:16:30.141Z,90.08
2023-12-07T11:19:43.251Z,90.13
2023-12-07T11:22:35.029Z,90.15
2023-12-07T11:25:26.766Z,89.78
2023-12-07T11:28:16.450Z,90.01
2023-12-07T11:31:07.894Z,90.11
2023-12-07T11:33:56.985Z,90.18
2023-12-07T11:36:48.232Z,89.75
2023-12-07T11:39:38.062Z,89.44
2023-12-07T11:42:30.883Z,89.19
2023-12-07T11:45:47.559Z,89.43
2023-12-07T11:48:38.661Z,89.36
2023-12-07T11:51:28.034Z,89.44
2023-12-07T11:54:18.410Z,89.58
2023-12-07T11:57:07.900Z,89.24
2023-12-07T11:59:56.545Z,89.38
2023-12-07T12:02:52.547Z,89.06
2023-12-07T12:05:42.388Z,88.83
2023-12-07T12:08:31.873Z,89.20
2023-12-07T12:11:21.008Z,88.73
2023-12-07T12:14:09.658Z,88.78
2023-12-07T12:16:59.006Z,88.65
2023-12-07T12:19:47.937Z,88.77
2023-12-07T12:22:38.103Z,88.84
2023-12-07T12:25:32.278Z,88.96
2023-12-07T12:28:23.650Z,88.86
2023-12-07T12:31:13.132Z,89.01
2023-12-07T12:34:10.640Z,89.25
2023-12-07T12:37:01.458Z,89.41
2023-12-07T12:39:50.132Z,89.23
2023-12-07T12:42:40.041Z,89.25
2023-12-07T12:45:29.067Z,89.27
2023-12-07T12:48:17.849Z,89.10
2023-12-07T12:51:13.379Z,88.90
2023-12-07T12:54:02.267Z,88.70
2023-12-07T12:56:50.944Z,88.83
2023-12-07T12:59:39.737Z,88.91
2023-12-07T13:02:28.410Z,88.64
2023-12-07T13:05:18.260Z,88.38
2023-12-07T13:08:14.182Z,88.61
2023-12-07T13:11:03.949Z,88.35
2023-12-07T13:13:53.448Z,88.50
2023-12-07T13:16:42.465Z,88.61
2023-12-07T13:19:31.163Z,88.53
2023-12-07T13:22:19.838Z,88.68
2023-12-07T13:25:09.410Z,88.57
2023-12-07T13:27:58.996Z,88.37
2023-12-07T13:30:47.648Z,88.68
2023-12-07T13:33:43.134Z,88.71
2023-12-07T13:36:39.542Z,88.81
2023-12-07T13:39:31.055Z,88.88
2023-12-07T13:42:20.587Z,89.08
2023-12-07T13:45:09.669Z,89.07
2023-12-07T13:47:59.824Z,88.87
2023-12-07T13:50:48.415Z,88.80
2023-12-07T13:53:37.231Z,88.68
2023-12-07T13:56:25.843Z,88.72
2023-12-07T13:59:14.563Z,88.80
2023-12-07T14:02:03.236Z,88.95
2023-12-07T14:04:52.164Z,88.96
2023-12-07T14:07:40.947Z,88.96
2023-12-07T14:10:31.454Z,89.02
2023-12-07T14:13:20.882Z,88.78
2023-12-07T14:16:16.574Z,89.10
2023-12-07T14:22:04.024Z,89.18
2023-12-07T14:24:53.494Z,88.94
2023-12-07T14:27:41.999Z,89.04
2023-12-07T14:30:30.516Z,89.04
2023-12-07T14:33:19.612Z,89.16
2023-12-07T14:36:11.648Z,89.03
2023-12-07T14:39:00.338Z,89.11
2023-12-07T14:41:51.809Z,89.15
2023-12-07T14:44:40.432Z,89.24
2023-12-07T14:47:28.977Z,89.32
2023-12-07T14:50:17.721Z,89.26
2023-12-07T14:53:06.300Z,89.17
2023-12-07T14:55:54.890Z,89.13
2023-12-07T14:58:43.454Z,89.10
2023-12-07T15:01:32.097Z,89.32
2023-12-07T15:04:28.436Z,89.31
2023-12-07T15:07:22.290Z,89.60
2023-12-07T15:10:11.082Z,89.56
2023-12-07T15:12:59.674Z,89.57
2023-12-07T15:15:48.203Z,89.58
2023-12-07T15:18:38.354Z,89.42
2023-12-07T15:21:27.210Z,89.43
2023-12-07T15:24:23.344Z,89.60
2023-12-07T15:27:18.212Z,89.70
2023-12-07T15:30:10.946Z,90.18
2023-12-07T15:32:59.863Z,90.01
2023-12-07T15:35:48.647Z,90.17
2023-12-07T15:38:38.785Z,90.32
2023-12-07T15:41:27.857Z,90.00
2023-12-07T15:44:20.137Z,90.21
2023-12-07T15:47:12.339Z,90.38
2023-12-07T15:50:01.503Z,90.34
2023-12-07T15:52:50.047Z,90.38
2023-12-07T15:55:38.644Z,90.43
2023-12-07T15:58:27.221Z,90.44
2023-12-07T16:01:15.897Z,90.35
2023-12-07T16:04:04.596Z,90.30
2023-12-07T16:06:53.163Z,90.18
2023-12-07T16:09:44.886Z,90.00
2023-12-07T16:12:33.479Z,89.72
2023-12-07T16:15:22.172Z,89.59
2023-12-07T16:18:11.103Z,89.64
2023-12-07T16:20:59.773Z,89.79
2023-12-07T16:23:49.601Z,89.74
2023-12-07T16:26:39.634Z,89.75
2023-12-07T16:29:29.022Z,89.79
2023-12-07T16:32:17.641Z,89.70
2023-12-07T16:35:06.393Z,89.65
2023-12-07T16:37:54.969Z,89.56
2023-12-07T16:40:44.052Z,89.53
2023-12-07T16:43:32.725Z,89.53
2023-12-07T16:46:21.615Z,89.63
2023-12-07T16:49:10.350Z,89.74
2023-12-07T16:52:00.740Z,89.65
2023-12-07T16:54:49.613Z,89.51
2023-12-07T16:57:38.363Z,89.49
2023-12-07T17:00:27.049Z,89.32
2023-12-07T17:03:15.945Z,89.35
2023-12-07T17:06:06.042Z,89.32
2023-12-07T17:09:07.746Z,89.43
2023-12-07T17:12:00.440Z,89.62
2023-12-07T17:14:49.103Z,89.84
2023-12-07T17:17:39.470Z,89.72
2023-12-07T17:20:28.341Z,89.46
2023-12-07T17:23:16.906Z,89.48
2023-12-07T17:26:05.511Z,89.46
2023-12-07T17:28:54.037Z,89.52
2023-12-07T17:31:44.682Z,89.55
2023-12-07T17:34:33.411Z,89.54
2023-12-07T17:37:22.124Z,89.65
2023-12-07T17:40:10.891Z,89.65
2023-12-07T17:42:59.677Z,89.59
2023-12-07T17:45:48.477Z,89.61
2023-12-07T17:48:37.204Z,89.54
2023-12-07T17:51:27.775Z,89.47
2023-12-07T17:54:17.479Z,89.49
2023-12-07T17:57:06.001Z,89.50
2023-12-07T17:59:54.595Z,89.52
2023-12-07T18:02:43.142Z,89.52
2023-12-07T18:05:31.758Z,89.56
2023-12-07T18:08:20.335Z,89.63
2023-12-07T18:11:09.666Z,89.53
2023-12-07T18:13:58.310Z,89.50
2023-12-07T18:16:46.920Z,89.46
2023-12-07T18:19:36.437Z,89.38
2023-12-07T18:22:25.913Z,89.36
2023-12-07T18:25:14.572Z,89.40
2023-12-07T18:28:03.070Z,89.57
2023-12-07T18:30:51.753Z,89.63
2023-12-07T18:33:40.545Z,89.58
2023-12-07T18:36:29.163Z,89.52
2023-12-07T18:39:18.237Z,89.40
2023-12-07T18:42:09.466Z,89.41
2023-12-07T18:45:00.373Z,89.35
2023-12-07T18:47:49.182Z,89.42
2023-12-07T18:50:38.703Z,89.51
2023-12-07T18:53:28.665Z,89.54
2023-12-07T18:56:18.113Z,89.69
2023-12-07T18:59:07.445Z,89.61
2023-12-07T19:01:56.308Z,89.54
2023-12-07T19:04:45.112Z,89.47
2023-12-07T19:07:34.186Z,89.41
2023-12-07T19:10:22.794Z,89.32
2023-12-07T19:13:11.833Z,89.30
2023-12-07T19:16:00.393Z,89.44
2023-12-07T19:18:49.610Z,89.48
2023-12-07T19:21:40.245Z,89.56
2023-12-07T19:24:30.981Z,89.58
2023-12-07T19:27:19.804Z,89.44
2023-12-07T19:30:09.297Z,89.49
2023-12-07T19:33:03.588Z,89.44
2023-12-07T19:35:53.063Z,89.35
2023-12-07T19:38:41.772Z,89.48
2023-12-07T19:41:30.733Z,89.52
2023-12-07T19:44:19.806Z,89.54
2023-12-07T19:47:08.489Z,89.60
2023-12-07T19:49:58.368Z,89.67
2023-12-07T19:52:47.209Z,89.55
2023-12-07T19:55:35.853Z,89.48
2023-12-07T19:58:24.532Z,89.41
2023-12-07T20:01:13.285Z,89.37
2023-12-07T20:04:03.417Z,89.48
2023-12-07T20:06:54.197Z,89.47
2023-12-07T20:09:42.920Z,89.61
2023-12-07T20:12:32.045Z,89.78
2023-12-07T20:15:20.982Z,89.72
2023-12-07T20:18:09.728Z,89.57
2023-12-07T20:21:02.250Z,89.44
2023-12-07T20:23:51.313Z,89.25
2023-12-07T20:26:41.076Z,89.42
2023-12-07T20:29:30.841Z,89.48
2023-12-07T20:32:19.665Z,89.35
2023-12-07T20:35:08.870Z,89.50
2023-12-07T20:37:58.430Z,89.68
2023-12-07T20:40:48.770Z,89.70
2023-12-07T20:43:37.617Z,89.62
2023-12-07T20:46:26.279Z,89.51
2023-12-07T20:49:15.185Z,89.42
2023-12-07T20:52:05.053Z,89.44
2023-12-07T20:54:54.295Z,89.50
2023-12-07T20:57:43.839Z,89.62
2023-12-07T21:00:32.992Z,89.58
2023-12-07T21:03:24.705Z,89.67
2023-12-07T21:06:25.744Z,89.63
2023-12-07T21:09:16.071Z,89.56
2023-12-07T21:12:05.663Z,89.47
2023-12-07T21:14:55.605Z,89.38
2023-12-07T21:17:44.496Z,89.34
2023-12-07T21:20:33.207Z,89.37
2023-12-07T21:23:21.999Z,89.53
2023-12-07T21:26:13.910Z,89.60
2023-12-07T21:29:02.574Z,89.58
2023-12-07T21:31:51.081Z,89.61
2023-12-07T21:34:42.753Z,89.55
2023-12-07T21:37:32.977Z,89.37
2023-12-07T21:40:22.015Z,89.20
2023-12-07T21:43:10.667Z,89.13
2023-12-07T21:45:59.187Z,89.32
2023-12-07T21:48:48.264Z,89.12
2023-12-07T21:51:36.871Z,88.98
2023-12-07T21:54:25.665Z,89.26
2023-12-07T21:57:14.323Z,89.71
2023-12-07T22:00:02.940Z,89.92
2023-12-07T22:03:01.295Z,89.92
2023-12-07T22:05:50.348Z,89.79
2023-12-07T22:08:39.087Z,89.65
2023-12-07T22:11:27.716Z,89.65
2023-12-07T22:14:16.327Z,89.76
2023-12-07T22:17:06.491Z,89.78
2023-12-07T22:19:55.131Z,89.71
2023-12-07T22:22:43.677Z,89.56
2023-12-07T22:25:32.438Z,89.48
2023-12-07T22:28:21.395Z,89.40
2023-12-07T22:31:10.208Z,89.36
2023-12-07T22:34:00.934Z,89.44
2023-12-07T22:36:50.405Z,89.58
2023-12-07T22:39:39.249Z,89.54
2023-12-07T22:42:27.814Z,89.77
2023-12-07T22:45:16.412Z,89.76
2023-12-07T22:48:07.239Z,89.56
2023-12-07T22:50:55.886Z,89.63
2023-12-07T22:53:44.423Z,89.59
2023-12-07T22:56:33.048Z,89.59
2023-12-07T22:59:21.559Z,89.54
2023-12-07T23:02:10.214Z,89.62
2023-12-07T23:04:58.901Z,89.70
2023-12-07T23:07:48.700Z,89.84
2023-12-07T23:10:37.358Z,89.89
2023-12-07T23:13:25.957Z,89.73
2023-12-07T23:16:14.486Z,89.78
2023-12-07T23:19:04.112Z,89.78
2023-12-07T23:21:52.706Z,89.71
2023-12-07T23:24:41.423Z,89.61
2023-12-07T23:27:29.980Z,89.70
2023-12-07T23:30:18.804Z,89.98
2023-12-07T23:33:07.469Z,90.27
2023-12-07T23:35:56.212Z,90.16
2023-12-07T23:38:44.792Z,90.42
2023-12-07T23:41:33.427Z,90.49
2023-12-07T23:44:22.113Z,90.08
2023-12-07T23:47:10.666Z,90.01
2023-12-07T23:49:59.402Z,90.09
2023-12-07T23:52:48.155Z,90.36
2023-12-07T23:55:37.459Z,90.52
2023-12-07T23:58:26.016Z,90.71
